sensor_id;sensor_type;location;lat;lon;timestamp;pressure;altitude;pressure_sealevel;temperature;humidity
22830;BME280;11581;51.250;6.778;2023-05-22T00:01:25;100922.00;;;21.55;64.92
22830;BME280;11581;51.250;6.778;2023-05-22T00:03:53;100918.22;;;21.63;65.04
22830;BME280;11581;51.250;6.778;2023-05-22T00:06:19;100868.22;;;21.33;64.91
22830;BME280;11581;51.250;6.778;2023-05-22T00:08:46;100904.28;;;21.46;64.96
22830;BME280;11581;51.250;6.778;2023-05-22T00:11:13;100883.69;;;21.32;64.94
22830;BME280;11581;51.250;6.778;2023-05-22T00:13:39;100874.97;;;21.24;64.83
22830;BME280;11581;51.250;6.778;2023-05-22T00:16:06;100852.44;;;21.17;64.76
22830;BME280;11581;51.250;6.778;2023-05-22T00:18:33;100904.94;;;21.42;64.96
22830;BME280;11581;51.250;6.778;2023-05-22T00:20:59;100914.03;;;21.60;65.08
22830;BME280;11581;51.250;6.778;2023-05-22T00:23:26;100867.41;;;21.32;64.89
22830;BME280;11581;51.250;6.778;2023-05-22T00:25:54;100874.97;;;21.24;64.75
22830;BME280;11581;51.250;6.778;2023-05-22T00:28:20;100918.03;;;21.58;64.92
22830;BME280;11581;51.250;6.778;2023-05-22T00:30:47;100913.66;;;21.50;64.81
22830;BME280;11581;51.250;6.778;2023-05-22T00:33:13;100906.78;;;21.54;64.61
22830;BME280;11581;51.250;6.778;2023-05-22T00:35:40;100921.38;;;21.53;64.80
22830;BME280;11581;51.250;6.778;2023-05-22T00:38:07;100921.59;;;21.52;64.97
22830;BME280;11581;51.250;6.778;2023-05-22T00:40:35;100909.75;;;21.40;64.85
22830;BME280;11581;51.250;6.778;2023-05-22T00:43:02;100880.81;;;21.21;65.05
22830;BME280;11581;51.250;6.778;2023-05-22T00:45:32;100888.31;;;21.19;64.92
22830;BME280;11581;51.250;6.778;2023-05-22T00:47:59;100877.47;;;21.12;64.92
22830;BME280;11581;51.250;6.778;2023-05-22T00:50:25;100889.38;;;21.18;65.11
22830;BME280;11581;51.250;6.778;2023-05-22T00:52:52;100827.69;;;20.74;64.94
22830;BME280;11581;51.250;6.778;2023-05-22T00:55:27;100927.09;;;21.32;66.15
22830;BME280;11581;51.250;6.778;2023-05-22T00:57:55;100915.63;;;21.24;65.32
22830;BME280;11581;51.250;6.778;2023-05-22T01:00:22;100925.81;;;21.28;65.38
22830;BME280;11581;51.250;6.778;2023-05-22T01:02:49;100934.41;;;21.25;65.35
22830;BME280;11581;51.250;6.778;2023-05-22T01:05:16;100934.63;;;21.24;65.67
22830;BME280;11581;51.250;6.778;2023-05-22T01:07:44;100927.94;;;21.20;65.85
22830;BME280;11581;51.250;6.778;2023-05-22T01:10:11;100930.03;;;21.18;65.52
22830;BME280;11581;51.250;6.778;2023-05-22T01:18:31;100930.88;;;21.12;66.72
22830;BME280;11581;51.250;6.778;2023-05-22T01:21:09;100928.59;;;21.09;66.99
22830;BME280;11581;51.250;6.778;2023-05-22T01:26:40;100928.38;;;21.04;65.72
22830;BME280;11581;51.250;6.778;2023-05-22T01:31:47;100929.22;;;20.98;66.30
22830;BME280;11581;51.250;6.778;2023-05-22T01:34:16;100881.28;;;20.66;66.07
22830;BME280;11581;51.250;6.778;2023-05-22T01:36:45;100915.44;;;20.93;66.34
22830;BME280;11581;51.250;6.778;2023-05-22T01:39:14;100747.94;;;19.85;66.12
22830;BME280;11581;51.250;6.778;2023-05-22T01:41:41;100922.75;;;20.86;66.35
22830;BME280;11581;51.250;6.778;2023-05-22T01:44:09;100846.28;;;20.45;66.23
22830;BME280;11581;51.250;6.778;2023-05-22T01:46:36;100820.44;;;20.23;66.47
22830;BME280;11581;51.250;6.778;2023-05-22T01:49:03;100890.84;;;20.62;66.21
22830;BME280;11581;51.250;6.778;2023-05-22T01:51:53;100913.16;;;20.77;67.59
22830;BME280;11581;51.250;6.778;2023-05-22T01:57:06;100889.22;;;20.67;67.19
22830;BME280;11581;51.250;6.778;2023-05-22T01:59:48;100860.88;;;20.44;67.49
22830;BME280;11581;51.250;6.778;2023-05-22T02:02:17;100871.72;;;20.44;66.65
22830;BME280;11581;51.250;6.778;2023-05-22T02:04:47;100907.94;;;20.69;66.55
22830;BME280;11581;51.250;6.778;2023-05-22T02:07:20;100862.31;;;20.40;66.71
22830;BME280;11581;51.250;6.778;2023-05-22T02:09:50;100895.88;;;20.58;66.69
22830;BME280;11581;51.250;6.778;2023-05-22T02:12:19;100906.31;;;20.61;67.04
22830;BME280;11581;51.250;6.778;2023-05-22T02:14:47;100872.53;;;20.38;66.67
22830;BME280;11581;51.250;6.778;2023-05-22T02:17:14;100907.94;;;20.56;67.05
22830;BME280;11581;51.250;6.778;2023-05-22T02:19:43;100850.44;;;20.21;67.01
22830;BME280;11581;51.250;6.778;2023-05-22T02:22:10;100891.69;;;20.43;67.03
22830;BME280;11581;51.250;6.778;2023-05-22T02:24:43;100886.50;;;20.35;67.29
22830;BME280;11581;51.250;6.778;2023-05-22T02:27:11;100872.09;;;20.21;66.99
22830;BME280;11581;51.250;6.778;2023-05-22T02:29:38;100826.25;;;20.00;67.36
22830;BME280;11581;51.250;6.778;2023-05-22T02:32:05;100868.56;;;20.21;67.50
22830;BME280;11581;51.250;6.778;2023-05-22T02:34:32;100829.56;;;19.96;67.50
22830;BME280;11581;51.250;6.778;2023-05-22T02:36:59;100898.97;;;20.36;67.63
22830;BME280;11581;51.250;6.778;2023-05-22T02:39:29;100902.94;;;20.33;68.07
22830;BME280;11581;51.250;6.778;2023-05-22T02:41:55;100879.19;;;20.16;67.86
22830;BME280;11581;51.250;6.778;2023-05-22T02:44:22;100841.22;;;19.89;67.94
22830;BME280;11581;51.250;6.778;2023-05-22T02:46:48;100837.66;;;19.82;68.19
22830;BME280;11581;51.250;6.778;2023-05-22T02:49:15;100852.88;;;19.97;68.28
22830;BME280;11581;51.250;6.778;2023-05-22T02:51:42;100893.97;;;20.20;68.33
22830;BME280;11581;51.250;6.778;2023-05-22T02:54:13;100890.84;;;20.16;68.88
22830;BME280;11581;51.250;6.778;2023-05-22T02:56:42;100866.81;;;19.93;68.48
22830;BME280;11581;51.250;6.778;2023-05-22T02:59:09;100743.81;;;19.16;68.39
22830;BME280;11581;51.250;6.778;2023-05-22T03:01:36;100884.31;;;19.98;68.63
22830;BME280;11581;51.250;6.778;2023-05-22T03:04:04;100826.81;;;19.69;68.70
22830;BME280;11581;51.250;6.778;2023-05-22T03:06:31;100817.41;;;19.59;68.76
22830;BME280;11581;51.250;6.778;2023-05-22T03:08:58;100817.63;;;19.64;68.70
22830;BME280;11581;51.250;6.778;2023-05-22T03:11:25;100850.34;;;19.75;68.80
22830;BME280;11581;51.250;6.778;2023-05-22T03:13:52;100778.41;;;19.27;68.83
22830;BME280;11581;51.250;6.778;2023-05-22T03:16:21;100813.00;;;19.51;69.12
22830;BME280;11581;51.250;6.778;2023-05-22T03:18:49;100816.97;;;19.49;69.21
22830;BME280;11581;51.250;6.778;2023-05-22T03:21:17;100896.19;;;19.90;69.32
22830;BME280;11581;51.250;6.778;2023-05-22T03:23:45;100838.19;;;19.58;69.51
22830;BME280;11581;51.250;6.778;2023-05-22T03:26:12;100871.56;;;19.72;69.26
22830;BME280;11581;51.250;6.778;2023-05-22T03:28:39;100900.72;;;19.83;69.33
22830;BME280;11581;51.250;6.778;2023-05-22T03:31:07;100852.72;;;19.51;69.55
22830;BME280;11581;51.250;6.778;2023-05-22T03:33:45;100880.28;;;19.67;69.52
22830;BME280;11581;51.250;6.778;2023-05-22T03:36:12;100819.34;;;19.24;69.71
22830;BME280;11581;51.250;6.778;2023-05-22T03:38:39;100834.38;;;19.33;69.54
22830;BME280;11581;51.250;6.778;2023-05-22T03:41:06;100900.47;;;19.71;69.67
22830;BME280;11581;51.250;6.778;2023-05-22T03:43:33;100890.06;;;19.68;69.67
22830;BME280;11581;51.250;6.778;2023-05-22T03:46:00;100890.25;;;19.67;70.05
22830;BME280;11581;51.250;6.778;2023-05-22T03:48:27;100888.19;;;19.62;70.07
22830;BME280;11581;51.250;6.778;2023-05-22T03:50:53;100886.28;;;19.63;70.15
22830;BME280;11581;51.250;6.778;2023-05-22T03:53:20;100879.19;;;19.55;70.26
22830;BME280;11581;51.250;6.778;2023-05-22T03:55:46;100736.34;;;18.71;70.50
22830;BME280;11581;51.250;6.778;2023-05-22T03:58:13;100867.50;;;19.48;70.53
22830;BME280;11581;51.250;6.778;2023-05-22T04:00:39;100758.84;;;18.85;70.60
22830;BME280;11581;51.250;6.778;2023-05-22T04:03:06;100885.25;;;19.57;70.80
22830;BME280;11581;51.250;6.778;2023-05-22T04:05:37;100891.69;;;19.56;70.89
22830;BME280;11581;51.250;6.778;2023-05-22T04:08:04;100861.84;;;19.30;70.81
22830;BME280;11581;51.250;6.778;2023-05-22T04:10:31;100808.03;;;19.08;71.00
22830;BME280;11581;51.250;6.778;2023-05-22T04:12:58;100813.44;;;19.08;70.83
22830;BME280;11581;51.250;6.778;2023-05-22T04:15:25;100891.50;;;19.58;70.92
22830;BME280;11581;51.250;6.778;2023-05-22T04:17:51;100897.50;;;19.60;71.16
22830;BME280;11581;51.250;6.778;2023-05-22T04:20:19;100823.03;;;19.17;70.97
22830;BME280;11581;51.250;6.778;2023-05-22T04:22:47;100889.38;;;19.53;71.07
22830;BME280;11581;51.250;6.778;2023-05-22T04:25:14;100892.09;;;19.53;71.30
22830;BME280;11581;51.250;6.778;2023-05-22T04:27:40;100856.22;;;19.38;70.87
22830;BME280;11581;51.250;6.778;2023-05-22T04:30:07;100904.63;;;19.67;71.39
22830;BME280;11581;51.250;6.778;2023-05-22T04:32:35;100823.88;;;19.17;71.21
22830;BME280;11581;51.250;6.778;2023-05-22T04:35:03;100889.59;;;19.58;71.56
22830;BME280;11581;51.250;6.778;2023-05-22T04:37:30;100919.00;;;19.74;71.38
22830;BME280;11581;51.250;6.778;2023-05-22T04:39:59;100926.09;;;19.75;71.07
22830;BME280;11581;51.250;6.778;2023-05-22T04:42:30;100917.78;;;19.77;70.96
22830;BME280;11581;51.250;6.778;2023-05-22T04:44:59;100919.25;;;19.79;71.34
22830;BME280;11581;51.250;6.778;2023-05-22T04:47:26;100920.69;;;19.82;71.25
22830;BME280;11581;51.250;6.778;2023-05-22T04:49:53;100921.16;;;19.85;71.09
22830;BME280;11581;51.250;6.778;2023-05-22T04:52:21;100920.75;;;19.88;71.18
22830;BME280;11581;51.250;6.778;2023-05-22T04:54:48;100852.13;;;19.49;71.11
22830;BME280;11581;51.250;6.778;2023-05-22T04:57:23;100891.53;;;19.77;71.89
22830;BME280;11581;51.250;6.778;2023-05-22T04:59:52;100915.53;;;19.93;70.95
22830;BME280;11581;51.250;6.778;2023-05-22T05:02:21;100898.44;;;19.86;70.72
22830;BME280;11581;51.250;6.778;2023-05-22T05:04:48;100840.06;;;19.51;70.55
22830;BME280;11581;51.250;6.778;2023-05-22T05:07:15;100914.94;;;19.98;70.67
22830;BME280;11581;51.250;6.778;2023-05-22T05:09:43;100830.69;;;19.47;70.82
22830;BME280;11581;51.250;6.778;2023-05-22T05:12:11;100919.94;;;20.01;70.62
22830;BME280;11581;51.250;6.778;2023-05-22T05:14:39;100917.03;;;20.03;70.79
22830;BME280;11581;51.250;6.778;2023-05-22T05:17:06;100903.66;;;19.94;70.70
22830;BME280;11581;51.250;6.778;2023-05-22T05:19:32;100927.03;;;20.09;70.92
22830;BME280;11581;51.250;6.778;2023-05-22T05:21:59;100913.25;;;20.04;71.25
22830;BME280;11581;51.250;6.778;2023-05-22T05:24:26;100845.09;;;19.67;71.13
22830;BME280;11581;51.250;6.778;2023-05-22T05:26:53;100920.44;;;20.24;71.05
22830;BME280;11581;51.250;6.778;2023-05-22T05:29:20;100905.84;;;20.19;70.94
22830;BME280;11581;51.250;6.778;2023-05-22T05:31:53;100927.94;;;20.42;70.82
22830;BME280;11581;51.250;6.778;2023-05-22T05:34:59;100908.59;;;20.45;71.05
22830;BME280;11581;51.250;6.778;2023-05-22T05:37:47;100848.53;;;20.15;70.72
22830;BME280;11581;51.250;6.778;2023-05-22T05:40:15;100931.72;;;20.80;70.60
22830;BME280;11581;51.250;6.778;2023-05-22T05:42:47;100915.03;;;20.83;70.29
22830;BME280;11581;51.250;6.778;2023-05-22T05:45:16;100907.53;;;20.85;69.83
22830;BME280;11581;51.250;6.778;2023-05-22T05:47:43;100887.53;;;20.86;69.26
22830;BME280;11581;51.250;6.778;2023-05-22T05:50:10;100913.16;;;21.09;69.04
22830;BME280;11581;51.250;6.778;2023-05-22T05:52:40;100922.53;;;20.81;68.39
22830;BME280;11581;51.250;6.778;2023-05-22T05:55:11;100877.91;;;21.03;68.29
22830;BME280;11581;51.250;6.778;2023-05-22T05:57:39;100896.66;;;21.24;68.66
22830;BME280;11581;51.250;6.778;2023-05-22T06:00:09;100916.22;;;21.39;68.80
22830;BME280;11581;51.250;6.778;2023-05-22T06:02:40;100783.88;;;20.84;68.46
22830;BME280;11581;51.250;6.778;2023-05-22T06:05:33;100923.19;;;21.79;67.96
22830;BME280;11581;51.250;6.778;2023-05-22T06:08:17;100902.28;;;21.86;67.37
22830;BME280;11581;51.250;6.778;2023-05-22T06:10:46;100865.13;;;21.80;67.19
22830;BME280;11581;51.250;6.778;2023-05-22T06:13:30;100937.00;;;22.15;66.75
22830;BME280;11581;51.250;6.778;2023-05-22T06:15:59;100412.31;;;19.41;66.11
22830;BME280;11581;51.250;6.778;2023-05-22T06:18:26;100746.84;;;21.22;65.30
22830;BME280;11581;51.250;6.778;2023-05-22T06:20:54;100724.69;;;21.31;64.64
22830;BME280;11581;51.250;6.778;2023-05-22T06:23:23;100693.06;;;21.12;63.36
22830;BME280;11581;51.250;6.778;2023-05-22T06:25:50;100959.25;;;22.92;63.40
22830;BME280;11581;51.250;6.778;2023-05-22T06:28:20;100880.53;;;22.48;63.52
22830;BME280;11581;51.250;6.778;2023-05-22T06:30:48;100876.38;;;22.46;63.89
22830;BME280;11581;51.250;6.778;2023-05-22T06:33:17;100960.94;;;23.11;64.54
22830;BME280;11581;51.250;6.778;2023-05-22T06:35:44;100899.53;;;22.79;64.84
22830;BME280;11581;51.250;6.778;2023-05-22T06:38:14;100722.34;;;21.97;65.12
22830;BME280;11581;51.250;6.778;2023-05-22T06:40:42;100844.28;;;22.85;64.55
22830;BME280;11581;51.250;6.778;2023-05-22T06:43:18;100752.72;;;22.79;63.26
22830;BME280;11581;51.250;6.778;2023-05-22T06:45:50;100954.28;;;24.34;62.02
22830;BME280;11581;51.250;6.778;2023-05-22T06:48:43;100987.81;;;24.64;60.64
22830;BME280;11581;51.250;6.778;2023-05-22T06:51:22;100992.63;;;24.91;58.39
22830;BME280;11581;51.250;6.778;2023-05-22T06:54:02;100908.56;;;24.59;59.17
22830;BME280;11581;51.250;6.778;2023-05-22T06:56:32;100998.81;;;25.10;58.43
22830;BME280;11581;51.250;6.778;2023-05-22T06:59:08;100820.81;;;24.16;57.84
22830;BME280;11581;51.250;6.778;2023-05-22T07:01:58;100622.88;;;23.04;57.57
22830;BME280;11581;51.250;6.778;2023-05-22T07:04:34;100655.28;;;23.24;57.03
22830;BME280;11581;51.250;6.778;2023-05-22T07:07:14;101003.78;;;25.13;57.04
22830;BME280;11581;51.250;6.778;2023-05-22T07:09:42;100616.84;;;22.91;56.31
22830;BME280;11581;51.250;6.778;2023-05-22T07:12:12;100924.28;;;24.75;56.28
22830;BME280;11581;51.250;6.778;2023-05-22T07:14:55;101052.91;;;25.13;56.14
22830;BME280;11581;51.250;6.778;2023-05-22T07:17:25;100912.78;;;24.32;56.25
22830;BME280;11581;51.250;6.778;2023-05-22T07:19:53;100885.53;;;24.32;56.23
22830;BME280;11581;51.250;6.778;2023-05-22T07:22:20;100875.31;;;24.16;56.25
22830;BME280;11581;51.250;6.778;2023-05-22T07:24:47;100944.72;;;24.54;56.03
22830;BME280;11581;51.250;6.778;2023-05-22T07:27:16;100840.69;;;23.75;56.26
22830;BME280;11581;51.250;6.778;2023-05-22T07:29:48;100992.88;;;24.60;56.31
22830;BME280;11581;51.250;6.778;2023-05-22T07:32:16;100762.84;;;23.08;56.48
22830;BME280;11581;51.250;6.778;2023-05-22T07:34:43;100683.66;;;22.44;56.28
22830;BME280;11581;51.250;6.778;2023-05-22T07:37:14;100716.47;;;22.67;56.35
22830;BME280;11581;51.250;6.778;2023-05-22T07:39:45;101027.44;;;24.00;56.64
22830;BME280;11581;51.250;6.778;2023-05-22T07:42:12;100913.00;;;23.35;56.38
22830;BME280;11581;51.250;6.778;2023-05-22T07:44:46;100762.81;;;22.54;56.65
22830;BME280;11581;51.250;6.778;2023-05-22T07:47:15;100966.59;;;23.52;56.97
22830;BME280;11581;51.250;6.778;2023-05-22T07:49:42;100960.63;;;23.44;57.40
22830;BME280;11581;51.250;6.778;2023-05-22T07:52:09;100819.22;;;22.34;57.43
22830;BME280;11581;51.250;6.778;2023-05-22T07:54:36;100972.78;;;23.23;57.70
22830;BME280;11581;51.250;6.778;2023-05-22T07:57:07;100692.97;;;21.32;57.86
22830;BME280;11581;51.250;6.778;2023-05-22T07:59:38;100693.41;;;21.60;58.06
22830;BME280;11581;51.250;6.778;2023-05-22T08:02:07;101049.94;;;23.53;58.53
22830;BME280;11581;51.250;6.778;2023-05-22T08:04:36;100956.19;;;23.07;58.57
22830;BME280;11581;51.250;6.778;2023-05-22T08:07:03;101037.38;;;23.52;58.85
22830;BME280;11581;51.250;6.778;2023-05-22T08:09:29;101022.63;;;23.42;58.45
22830;BME280;11581;51.250;6.778;2023-05-22T08:11:56;100978.31;;;23.10;58.57
22830;BME280;11581;51.250;6.778;2023-05-22T08:14:23;101041.16;;;23.51;58.81
22830;BME280;11581;51.250;6.778;2023-05-22T08:16:49;100967.06;;;23.07;58.76
22830;BME280;11581;51.250;6.778;2023-05-22T08:19:16;100950.78;;;23.00;58.82
22830;BME280;11581;51.250;6.778;2023-05-22T08:21:43;101020.28;;;23.45;58.69
22830;BME280;11581;51.250;6.778;2023-05-22T08:24:09;101034.97;;;23.62;58.35
22830;BME280;11581;51.250;6.778;2023-05-22T08:26:36;101002.88;;;23.46;58.50
22830;BME280;11581;51.250;6.778;2023-05-22T08:29:03;101036.78;;;23.68;58.64
22830;BME280;11581;51.250;6.778;2023-05-22T08:31:30;101038.03;;;23.72;58.35
22830;BME280;11581;51.250;6.778;2023-05-22T08:33:58;100976.41;;;23.35;58.25
22830;BME280;11581;51.250;6.778;2023-05-22T08:36:29;101036.28;;;23.78;57.65
22830;BME280;11581;51.250;6.778;2023-05-22T08:38:58;101009.25;;;23.58;58.00
22830;BME280;11581;51.250;6.778;2023-05-22T08:41:27;101045.44;;;23.83;57.87
22830;BME280;11581;51.250;6.778;2023-05-22T08:43:53;100965.09;;;23.38;58.07
22830;BME280;11581;51.250;6.778;2023-05-22T08:46:22;101016.53;;;23.64;57.66
22830;BME280;11581;51.250;6.778;2023-05-22T08:48:50;101010.19;;;23.70;57.90
22830;BME280;11581;51.250;6.778;2023-05-22T08:51:18;101025.97;;;23.62;57.81
22830;BME280;11581;51.250;6.778;2023-05-22T08:53:46;100964.41;;;23.43;57.35
22830;BME280;11581;51.250;6.778;2023-05-22T08:56:17;101017.06;;;23.73;57.38
22830;BME280;11581;51.250;6.778;2023-05-22T08:58:44;101029.72;;;23.85;57.49
22830;BME280;11581;51.250;6.778;2023-05-22T09:01:12;101043.69;;;23.89;57.47
22830;BME280;11581;51.250;6.778;2023-05-22T09:03:39;101000.72;;;23.73;57.50
22830;BME280;11581;51.250;6.778;2023-05-22T09:06:06;100989.31;;;23.64;57.29
22830;BME280;11581;51.250;6.778;2023-05-22T09:08:34;101061.03;;;24.13;57.22
22830;BME280;11581;51.250;6.778;2023-05-22T09:11:01;101036.84;;;24.05;56.79
22830;BME280;11581;51.250;6.778;2023-05-22T09:13:29;101053.16;;;24.23;57.07
22830;BME280;11581;51.250;6.778;2023-05-22T09:16:08;101054.97;;;24.29;56.31
22830;BME280;11581;51.250;6.778;2023-05-22T09:18:38;101059.50;;;24.35;56.23
22830;BME280;11581;51.250;6.778;2023-05-22T09:21:05;101053.13;;;24.41;56.11
22830;BME280;11581;51.250;6.778;2023-05-22T09:23:32;101002.00;;;24.07;55.58
22830;BME280;11581;51.250;6.778;2023-05-22T09:26:01;100990.75;;;24.03;55.57
22830;BME280;11581;51.250;6.778;2023-05-22T09:28:34;100949.81;;;23.73;55.50
22830;BME280;11581;51.250;6.778;2023-05-22T09:31:02;101063.47;;;24.50;55.68
22830;BME280;11581;51.250;6.778;2023-05-22T09:33:30;100992.47;;;24.16;55.84
22830;BME280;11581;51.250;6.778;2023-05-22T09:35:57;101065.81;;;24.65;55.70
22830;BME280;11581;51.250;6.778;2023-05-22T09:38:29;100979.97;;;24.26;54.99
22830;BME280;11581;51.250;6.778;2023-05-22T09:40:56;100988.19;;;24.38;55.51
22830;BME280;11581;51.250;6.778;2023-05-22T09:43:23;101017.81;;;24.64;55.72
22830;BME280;11581;51.250;6.778;2023-05-22T09:46:00;101050.75;;;24.92;53.76
22830;BME280;11581;51.250;6.778;2023-05-22T09:48:28;101066.03;;;25.34;55.08
22830;BME280;11581;51.250;6.778;2023-05-22T09:51:01;101064.59;;;25.54;54.46
22830;BME280;11581;51.250;6.778;2023-05-22T09:53:31;101042.50;;;25.56;53.52
22830;BME280;11581;51.250;6.778;2023-05-22T09:55:58;101071.97;;;26.00;53.30
22830;BME280;11581;51.250;6.778;2023-05-22T09:58:26;101045.09;;;25.97;52.37
22830;BME280;11581;51.250;6.778;2023-05-22T10:00:56;100993.56;;;25.89;51.62
22830;BME280;11581;51.250;6.778;2023-05-22T10:03:23;101079.16;;;26.57;51.13
22830;BME280;11581;51.250;6.778;2023-05-22T10:05:53;101073.91;;;26.67;49.59
22830;BME280;11581;51.250;6.778;2023-05-22T10:08:24;101019.28;;;26.44;49.04
22830;BME280;11581;51.250;6.778;2023-05-22T10:10:53;101018.25;;;26.34;49.60
22830;BME280;11581;51.250;6.778;2023-05-22T10:13:23;101032.56;;;26.52;49.09
22830;BME280;11581;51.250;6.778;2023-05-22T10:15:50;101055.09;;;26.71;49.46
22830;BME280;11581;51.250;6.778;2023-05-22T10:18:17;100986.09;;;26.24;49.12
22830;BME280;11581;51.250;6.778;2023-05-22T10:20:44;101083.72;;;26.80;48.76
22830;BME280;11581;51.250;6.778;2023-05-22T10:23:13;101068.94;;;26.64;48.28
22830;BME280;11581;51.250;6.778;2023-05-22T10:25:40;101080.56;;;26.71;48.69
22830;BME280;11581;51.250;6.778;2023-05-22T10:28:09;101061.69;;;26.58;48.57
22830;BME280;11581;51.250;6.778;2023-05-22T10:33:42;101024.84;;;26.21;48.30
22830;BME280;11581;51.250;6.778;2023-05-22T10:36:17;100973.72;;;25.93;48.14
22830;BME280;11581;51.250;6.778;2023-05-22T10:38:56;101002.41;;;26.19;48.51
22830;BME280;11581;51.250;6.778;2023-05-22T10:41:29;100976.16;;;26.18;49.58
22830;BME280;11581;51.250;6.778;2023-05-22T10:43:56;101047.25;;;26.74;50.10
22830;BME280;11581;51.250;6.778;2023-05-22T10:46:22;101037.81;;;26.98;49.84
22830;BME280;11581;51.250;6.778;2023-05-22T10:48:52;100944.53;;;26.83;48.58
22830;BME280;11581;51.250;6.778;2023-05-22T10:51:22;101060.16;;;27.94;47.53
22830;BME280;11581;51.250;6.778;2023-05-22T10:53:51;100938.94;;;27.87;49.28
22830;BME280;11581;51.250;6.778;2023-05-22T10:56:18;100975.47;;;28.68;47.73
22830;BME280;11581;51.250;6.778;2023-05-22T10:58:56;101014.59;;;29.53;43.98
22830;BME280;11581;51.250;6.778;2023-05-22T11:01:26;100948.50;;;29.69;43.02
22830;BME280;11581;51.250;6.778;2023-05-22T11:04:08;101042.16;;;30.86;44.20
22830;BME280;11581;51.250;6.778;2023-05-22T11:06:36;101049.63;;;31.41;43.49
22830;BME280;11581;51.250;6.778;2023-05-22T11:11:46;101044.09;;;32.45;40.94
22830;BME280;11581;51.250;6.778;2023-05-22T11:14:15;100899.78;;;31.95;39.57
22830;BME280;11581;51.250;6.778;2023-05-22T11:16:43;100872.00;;;32.21;39.02
22830;BME280;11581;51.250;6.778;2023-05-22T11:19:10;100861.00;;;32.54;38.31
22830;BME280;11581;51.250;6.778;2023-05-22T11:21:45;101047.28;;;33.96;35.93
22830;BME280;11581;51.250;6.778;2023-05-22T11:24:16;101004.91;;;34.00;35.74
22830;BME280;11581;51.250;6.778;2023-05-22T11:26:43;100871.31;;;33.53;35.95
22830;BME280;11581;51.250;6.778;2023-05-22T11:29:10;100956.16;;;34.23;35.58
22830;BME280;11581;51.250;6.778;2023-05-22T11:31:37;100986.13;;;34.58;35.31
22830;BME280;11581;51.250;6.778;2023-05-22T11:34:04;101028.00;;;35.07;34.84
22830;BME280;11581;51.250;6.778;2023-05-22T11:36:31;101029.63;;;35.27;34.91
22830;BME280;11581;51.250;6.778;2023-05-22T11:38:58;100891.44;;;34.56;34.62
22830;BME280;11581;51.250;6.778;2023-05-22T11:41:32;101031.25;;;35.60;33.23
22830;BME280;11581;51.250;6.778;2023-05-22T11:44:00;101025.03;;;35.81;34.09
22830;BME280;11581;51.250;6.778;2023-05-22T11:46:27;101008.16;;;35.91;33.76
22830;BME280;11581;51.250;6.778;2023-05-22T11:48:55;100917.84;;;35.58;32.25
22830;BME280;11581;51.250;6.778;2023-05-22T11:51:22;100981.81;;;36.16;32.58
22830;BME280;11581;51.250;6.778;2023-05-22T11:53:49;101033.63;;;36.48;32.17
22830;BME280;11581;51.250;6.778;2023-05-22T11:56:18;100963.13;;;36.22;30.71
22830;BME280;11581;51.250;6.778;2023-05-22T11:58:50;100986.19;;;36.44;30.52
22830;BME280;11581;51.250;6.778;2023-05-22T12:01:17;101011.94;;;36.72;31.44
22830;BME280;11581;51.250;6.778;2023-05-22T12:03:44;100933.16;;;36.32;31.58
22830;BME280;11581;51.250;6.778;2023-05-22T12:06:10;101004.63;;;36.76;31.55
22830;BME280;11581;51.250;6.778;2023-05-22T12:08:37;100939.56;;;36.33;31.11
22830;BME280;11581;51.250;6.778;2023-05-22T12:11:05;100879.03;;;36.08;30.63
22830;BME280;11581;51.250;6.778;2023-05-22T12:13:32;100963.56;;;36.51;30.93
22830;BME280;11581;51.250;6.778;2023-05-22T12:16:01;100983.88;;;36.60;31.03
22830;BME280;11581;51.250;6.778;2023-05-22T12:18:36;100899.09;;;36.04;30.68
22830;BME280;11581;51.250;6.778;2023-05-22T12:21:05;100944.97;;;36.38;30.98
22830;BME280;11581;51.250;6.778;2023-05-22T12:23:32;100921.97;;;36.24;30.90
22830;BME280;11581;51.250;6.778;2023-05-22T12:26:08;100982.03;;;36.55;31.00
22830;BME280;11581;51.250;6.778;2023-05-22T12:28:37;100948.84;;;36.50;30.05
22830;BME280;11581;51.250;6.778;2023-05-22T12:31:04;100938.69;;;36.46;30.73
22830;BME280;11581;51.250;6.778;2023-05-22T12:33:31;100964.88;;;36.53;30.84
22830;BME280;11581;51.250;6.778;2023-05-22T12:35:58;100979.25;;;36.91;30.16
22830;BME280;11581;51.250;6.778;2023-05-22T12:38:25;100985.34;;;36.93;30.43
22830;BME280;11581;51.250;6.778;2023-05-22T12:40:53;100903.97;;;36.35;30.30
22830;BME280;11581;51.250;6.778;2023-05-22T12:43:22;100998.81;;;36.86;29.70
22830;BME280;11581;51.250;6.778;2023-05-22T12:45:49;100818.78;;;35.86;30.21
22830;BME280;11581;51.250;6.778;2023-05-22T12:48:18;100877.78;;;36.14;30.24
22830;BME280;11581;51.250;6.778;2023-05-22T12:50:45;100888.25;;;36.17;30.08
22830;BME280;11581;51.250;6.778;2023-05-22T12:53:12;100966.16;;;36.69;30.23
22830;BME280;11581;51.250;6.778;2023-05-22T12:55:39;100952.00;;;36.57;30.35
22830;BME280;11581;51.250;6.778;2023-05-22T12:58:06;100975.44;;;36.65;30.40
22830;BME280;11581;51.250;6.778;2023-05-22T13:00:33;100951.72;;;36.45;30.01
22830;BME280;11581;51.250;6.778;2023-05-22T13:03:00;100920.00;;;36.24;30.32
22830;BME280;11581;51.250;6.778;2023-05-22T13:05:29;100977.56;;;36.46;30.32
22830;BME280;11581;51.250;6.778;2023-05-22T13:07:55;100946.34;;;36.27;30.35
22830;BME280;11581;51.250;6.778;2023-05-22T13:10:22;100967.94;;;36.30;30.51
22830;BME280;11581;51.250;6.778;2023-05-22T13:12:49;100941.25;;;36.07;30.42
22830;BME280;11581;51.250;6.778;2023-05-22T13:15:17;100931.59;;;35.90;30.32
22830;BME280;11581;51.250;6.778;2023-05-22T13:17:44;100903.03;;;35.63;30.45
22830;BME280;11581;51.250;6.778;2023-05-22T13:20:11;100947.44;;;35.76;30.75